createdAt,value
2018-02-10T00:00:50.141Z,28.93
2018-02-10T00:03:19.390Z,27.53
2018-02-10T00:05:49.364Z,27.20
2018-02-10T00:08:20.315Z,27.77
2018-02-10T00:10:49.541Z,34.90
2018-02-10T00:13:19.570Z,27.40
2018-02-10T00:15:48.804Z,28.10
2018-02-10T00:18:18.029Z,30.43
2018-02-10T00:20:47.249Z,26.80
2018-02-10T00:23:17.271Z,29.03
2018-02-10T00:25:47.252Z,30.23
2018-02-10T00:28:16.456Z,30.27
2018-02-10T00:30:45.683Z,28.00
2018-02-10T00:33:14.917Z,30.60
2018-02-10T00:35:44.168Z,30.07
2018-02-10T00:38:14.171Z,24.37
2018-02-10T00:40:44.184Z,37.57
2018-02-10T00:43:13.404Z,28.43
2018-02-10T00:45:43.395Z,32.40
2018-02-10T00:48:12.810Z,29.83
2018-02-10T00:50:42.814Z,30.33
2018-02-10T00:53:12.018Z,29.47
2018-02-10T00:55:42.020Z,31.87
2018-02-10T00:58:12.725Z,31.40
2018-02-10T01:00:41.945Z,30.57
2018-02-10T01:03:11.966Z,31.47
2018-02-10T01:05:41.238Z,27.63
2018-02-10T01:08:10.472Z,29.73
2018-02-10T01:10:39.723Z,30.80
2018-02-10T01:13:08.959Z,28.63
2018-02-10T01:15:38.206Z,30.33
2018-02-10T01:18:07.502Z,30.20
2018-02-10T01:20:36.727Z,32.87
2018-02-10T01:23:05.975Z,27.87
2018-02-10T01:25:36.012Z,33.30
2018-02-10T01:28:06.043Z,28.47
2018-02-10T01:30:35.353Z,30.53
2018-02-10T01:33:04.705Z,28.93
2018-02-10T01:35:34.670Z,31.73
2018-02-10T01:38:03.944Z,38.60
2018-02-10T01:40:33.918Z,33.03
2018-02-10T01:43:04.688Z,32.93
2018-02-10T01:45:33.940Z,33.90
2018-02-10T01:48:03.166Z,32.13
2018-02-10T01:50:33.175Z,33.80
2018-02-10T01:53:03.163Z,31.97
2018-02-10T01:55:32.457Z,36.10
2018-02-10T01:58:01.670Z,35.57
2018-02-10T02:00:30.918Z,38.67
2018-02-10T02:03:00.174Z,29.30
2018-02-10T02:05:29.421Z,36.53
2018-02-10T02:07:58.626Z,34.13
2018-02-10T02:10:27.881Z,35.07
2018-02-10T02:12:57.075Z,34.03
2018-02-10T02:15:26.310Z,33.60
2018-02-10T02:17:55.731Z,29.80
2018-02-10T02:20:25.032Z,28.40
2018-02-10T02:22:54.394Z,34.77
2018-02-10T02:25:23.631Z,30.70
2018-02-10T02:27:52.992Z,30.97
2018-02-10T02:30:23.034Z,31.80
2018-02-10T02:32:52.249Z,32.73
2018-02-10T02:35:21.510Z,38.30
2018-02-10T02:37:51.498Z,28.63
2018-02-10T02:40:20.715Z,35.53
2018-02-10T02:42:49.922Z,33.03
2018-02-10T02:45:19.216Z,32.27
2018-02-10T02:47:49.208Z,34.73
2018-02-10T02:50:18.441Z,32.23
2018-02-10T02:52:47.666Z,35.57
2018-02-10T02:55:16.864Z,38.20
2018-02-10T02:57:46.085Z,31.27
2018-02-10T03:00:15.310Z,32.63
2018-02-10T03:02:45.289Z,30.50
2018-02-10T03:05:14.511Z,28.23
2018-02-10T03:07:43.734Z,31.07
2018-02-10T03:10:12.990Z,30.70
2018-02-10T03:12:42.206Z,30.37
2018-02-10T03:15:12.238Z,36.50
2018-02-10T03:17:42.919Z,34.00
2018-02-10T03:20:12.222Z,34.70
2018-02-10T03:22:41.673Z,30.43
2018-02-10T03:25:11.698Z,30.20
2018-02-10T03:27:40.907Z,30.60
2018-02-10T03:30:10.890Z,38.03
2018-02-10T03:32:40.886Z,35.43
2018-02-10T03:35:10.147Z,35.53
2018-02-10T03:37:40.095Z,32.63
2018-02-10T03:40:09.322Z,36.30
2018-02-10T03:42:39.334Z,37.67
2018-02-10T03:45:09.311Z,31.77
2018-02-10T03:47:38.575Z,33.47
2018-02-10T03:50:08.547Z,31.87
2018-02-10T03:52:37.807Z,35.90
2018-02-10T03:55:07.026Z,37.83
2018-02-10T03:57:36.304Z,33.50
2018-02-10T04:00:05.511Z,38.00
2018-02-10T04:02:34.827Z,44.40
2018-02-10T04:05:04.159Z,37.23
2018-02-10T04:07:34.184Z,38.87
2018-02-10T04:10:04.153Z,37.37
2018-02-10T04:12:33.386Z,36.07
2018-02-10T04:15:04.105Z,38.20
2018-02-10T04:17:33.342Z,35.60
2018-02-10T04:20:02.662Z,45.47
2018-02-10T04:22:31.927Z,41.50
2018-02-10T04:25:01.927Z,32.30
2018-02-10T04:27:31.171Z,43.83
2018-02-10T04:30:00.455Z,43.47
2018-02-10T04:32:29.674Z,38.63
2018-02-10T04:34:59.054Z,40.93
2018-02-10T04:37:29.090Z,36.40
2018-02-10T04:39:58.347Z,37.50
2018-02-10T04:42:28.327Z,39.03
2018-02-10T04:44:57.615Z,38.73
2018-02-10T04:47:27.579Z,39.97
2018-02-10T04:49:57.610Z,36.40
2018-02-10T04:52:26.838Z,43.00
2018-02-10T04:54:56.070Z,41.70
2018-02-10T04:57:25.274Z,32.13
2018-02-10T04:59:54.502Z,36.10
2018-02-10T05:02:23.747Z,42.93
2018-02-10T05:04:52.968Z,38.27
2018-02-10T05:07:22.289Z,36.33
2018-02-10T05:09:52.318Z,36.90
2018-02-10T05:12:22.303Z,36.43
2018-02-10T05:14:51.523Z,33.30
2018-02-10T05:17:21.532Z,38.80
2018-02-10T05:19:51.497Z,42.63
2018-02-10T05:22:20.879Z,36.07
2018-02-10T05:24:50.106Z,36.90
2018-02-10T05:27:19.354Z,36.17
2018-02-10T05:29:48.598Z,39.17
2018-02-10T05:32:17.836Z,40.10
2018-02-10T05:34:47.866Z,43.70
2018-02-10T05:37:17.082Z,36.23
2018-02-10T05:39:47.087Z,34.63
2018-02-10T05:42:17.062Z,37.47
2018-02-10T05:44:46.310Z,39.27
2018-02-10T05:47:15.529Z,36.03
2018-02-10T05:49:44.873Z,36.43
2018-02-10T05:52:14.093Z,40.27
2018-02-10T05:54:44.086Z,39.63
2018-02-10T05:57:13.318Z,42.53
2018-02-10T05:59:42.679Z,43.10
2018-02-10T06:02:11.927Z,47.10
2018-02-10T06:04:41.203Z,45.40
2018-02-10T06:07:11.219Z,47.37
2018-02-10T06:09:41.189Z,52.00
2018-02-10T06:12:10.449Z,49.57
2018-02-10T06:14:39.670Z,50.23
2018-02-10T06:17:08.890Z,48.10
2018-02-10T06:19:38.137Z,44.70
2018-02-10T06:22:07.404Z,49.07
2018-02-10T06:24:36.642Z,50.70
2018-02-10T06:27:06.618Z,50.63
2018-02-10T06:29:35.834Z,48.87
2018-02-10T06:32:05.838Z,53.60
2018-02-10T06:34:35.250Z,46.23
2018-02-10T06:37:05.244Z,50.27
2018-02-10T06:39:34.497Z,45.63
2018-02-10T06:42:04.625Z,52.07
2018-02-10T06:44:33.857Z,48.27
2018-02-10T06:47:03.106Z,49.27
2018-02-10T06:49:32.343Z,46.30
2018-02-10T06:52:03.076Z,50.87
2018-02-10T06:54:32.347Z,45.50
2018-02-10T06:57:01.530Z,50.40
2018-02-10T06:59:30.840Z,52.63
2018-02-10T07:02:00.054Z,49.80
2018-02-10T07:04:29.409Z,48.13
2018-02-10T07:06:59.398Z,54.87
2018-02-10T07:09:28.743Z,45.77
2018-02-10T07:11:59.032Z,50.50
2018-02-10T07:14:28.290Z,46.53
2018-02-10T07:16:57.527Z,51.17
2018-02-10T07:19:27.627Z,48.50
2018-02-10T07:21:57.043Z,42.20
2018-02-10T07:24:27.060Z,50.27
2018-02-10T07:26:56.333Z,49.17
2018-02-10T07:29:25.754Z,48.30
2018-02-10T07:31:55.010Z,45.93
2018-02-10T07:34:24.258Z,41.17
2018-02-10T07:36:54.248Z,47.47
2018-02-10T07:39:23.473Z,42.57
2018-02-10T07:41:52.744Z,39.23
2018-02-10T07:44:22.019Z,45.50
2018-02-10T07:46:51.243Z,44.53
2018-02-10T07:49:20.495Z,54.07
2018-02-10T07:51:50.558Z,43.57
2018-02-10T07:54:19.796Z,41.03
2018-02-10T07:56:49.790Z,51.17
2018-02-10T07:59:19.045Z,44.17
2018-02-10T08:01:49.010Z,42.90
2018-02-10T08:04:19.003Z,45.50
2018-02-10T08:06:48.246Z,49.73
2018-02-10T08:09:17.469Z,40.93
2018-02-10T08:11:46.734Z,38.77
2018-02-10T08:14:16.734Z,44.63
2018-02-10T08:16:45.975Z,41.43
2018-02-10T08:19:15.979Z,43.27
2018-02-10T08:21:45.212Z,43.67
2018-02-10T08:24:14.452Z,41.33
2018-02-10T08:26:44.782Z,45.00
2018-02-10T08:29:14.772Z,49.33
2018-02-10T08:31:45.702Z,38.67
2018-02-10T08:34:14.895Z,36.90
2018-02-10T08:36:44.137Z,42.03
2018-02-10T08:39:14.118Z,40.80
2018-02-10T08:41:43.375Z,42.80
2018-02-10T08:44:12.722Z,40.60
2018-02-10T08:46:42.730Z,44.73
2018-02-10T08:49:11.941Z,43.03
2018-02-10T08:51:41.175Z,41.23
2018-02-10T08:54:10.437Z,40.97
2018-02-10T08:56:39.659Z,42.60
2018-02-10T08:59:09.663Z,41.37
2018-02-10T09:01:39.687Z,42.13
2018-02-10T09:04:09.857Z,38.03
2018-02-10T09:06:39.057Z,43.93
2018-02-10T09:09:08.370Z,43.77
2018-02-10T09:11:37.625Z,42.50
2018-02-10T09:14:06.852Z,37.97
2018-02-10T09:16:36.145Z,45.67
2018-02-10T09:19:05.393Z,40.57
2018-02-10T09:21:34.818Z,43.10
2018-02-10T09:24:04.307Z,42.73
2018-02-10T09:26:34.311Z,41.27
2018-02-10T09:29:03.510Z,35.13
2018-02-10T09:31:33.491Z,50.77
2018-02-10T09:34:02.768Z,40.70
2018-02-10T09:36:32.005Z,37.40
2018-02-10T09:39:02.185Z,43.50
2018-02-10T09:41:31.377Z,36.23
2018-02-10T09:44:00.683Z,37.80
2018-02-10T09:46:29.951Z,38.80
2018-02-10T09:48:59.331Z,37.53
2018-02-10T09:51:28.575Z,37.63
2018-02-10T09:53:57.847Z,35.13
2018-02-10T09:56:27.112Z,34.57
2018-02-10T09:58:56.318Z,37.17
2018-02-10T10:01:25.580Z,30.23
2018-02-10T10:03:54.790Z,42.10
2018-02-10T10:06:24.046Z,34.67
2018-02-10T10:08:54.216Z,28.77
2018-02-10T10:11:23.479Z,34.70
2018-02-10T10:13:52.716Z,32.37
2018-02-10T10:16:21.985Z,31.57
2018-02-10T10:18:51.230Z,32.83
2018-02-10T10:21:21.336Z,35.30
2018-02-10T10:23:50.587Z,30.63
2018-02-10T10:26:19.816Z,30.37
2018-02-10T10:28:49.057Z,27.23
2018-02-10T10:31:19.968Z,26.50
2018-02-10T10:33:49.381Z,30.90
2018-02-10T10:36:18.587Z,27.47
2018-02-10T10:38:48.600Z,28.67
2018-02-10T10:41:17.810Z,32.40
2018-02-10T10:43:47.146Z,23.93
2018-02-10T10:46:16.317Z,27.30
2018-02-10T10:48:45.588Z,28.97
2018-02-10T10:51:14.851Z,28.10
2018-02-10T10:53:44.109Z,25.73
2018-02-10T10:56:14.098Z,25.47
2018-02-10T10:58:43.566Z,26.77
2018-02-10T11:01:12.769Z,28.40
2018-02-10T11:03:41.991Z,21.37
2018-02-10T11:06:11.293Z,22.87
2018-02-10T11:08:40.506Z,28.97
2018-02-10T11:11:10.540Z,25.30
2018-02-10T11:13:40.534Z,23.87
2018-02-10T11:16:10.608Z,23.80
2018-02-10T11:18:39.840Z,21.63
2018-02-10T11:21:09.096Z,23.10
2018-02-10T11:23:38.308Z,24.20
2018-02-10T11:26:07.637Z,26.37
2018-02-10T11:28:37.023Z,22.60
2018-02-10T11:31:06.285Z,18.60
2018-02-10T11:33:35.545Z,21.10
2018-02-10T11:36:04.762Z,22.23
2018-02-10T11:38:34.012Z,21.40
2018-02-10T11:41:03.230Z,20.73
2018-02-10T11:43:33.350Z,16.90
2018-02-10T11:46:02.607Z,27.33
2018-02-10T11:48:31.849Z,19.80
2018-02-10T11:51:01.063Z,22.37
2018-02-10T11:53:31.175Z,26.43
2018-02-10T11:56:01.209Z,21.80
2018-02-10T11:58:30.448Z,23.83
2018-02-10T12:00:59.718Z,23.13
2018-02-10T12:03:29.008Z,31.83
2018-02-10T12:05:58.558Z,23.10
2018-02-10T12:08:27.794Z,24.43
2018-02-10T12:10:57.022Z,25.13
2018-02-10T12:13:26.512Z,23.77
2018-02-10T12:15:56.503Z,25.60
2018-02-10T12:18:26.524Z,24.90
2018-02-10T12:20:56.533Z,24.67
2018-02-10T12:23:25.803Z,25.23
2018-02-10T12:25:55.042Z,28.70
2018-02-10T12:28:24.259Z,27.40
2018-02-10T12:30:54.248Z,31.10
2018-02-10T12:33:23.507Z,28.17
2018-02-10T12:35:52.775Z,26.10
2018-02-10T12:38:21.972Z,27.13
2018-02-10T12:40:51.987Z,32.77
2018-02-10T12:43:21.491Z,26.80
2018-02-10T12:45:50.727Z,32.10
2018-02-10T12:48:26.109Z,33.63
2018-02-10T12:50:55.313Z,34.63
2018-02-10T12:53:25.333Z,31.80
2018-02-10T12:55:55.358Z,35.40
2018-02-10T12:58:25.560Z,35.67
2018-02-10T13:00:54.805Z,34.03
2018-02-10T13:03:24.042Z,36.90
2018-02-10T13:05:53.334Z,26.77
2018-02-10T13:08:22.551Z,40.80
2018-02-10T13:10:52.569Z,34.63
2018-02-10T13:13:22.665Z,30.73
2018-02-10T13:15:51.968Z,41.43
2018-02-10T13:18:21.254Z,38.70
2018-02-10T13:20:50.505Z,30.77
2018-02-10T13:23:20.560Z,30.07
2018-02-10T13:25:50.551Z,34.97
2018-02-10T13:28:19.881Z,30.60
2018-02-10T13:30:49.215Z,23.30
2018-02-10T13:33:19.195Z,20.97
2018-02-10T13:35:48.537Z,24.07
2018-02-10T13:38:17.853Z,27.53
2018-02-10T13:40:47.863Z,24.73
2018-02-10T13:43:17.874Z,20.03
2018-02-10T13:45:47.870Z,19.87
2018-02-10T13:48:39.329Z,17.23
2018-02-10T13:51:08.566Z,19.27
2018-02-10T13:53:37.774Z,15.53
2018-02-10T13:56:07.057Z,19.57
2018-02-10T13:58:37.043Z,20.90
2018-02-10T14:01:06.337Z,20.63
2018-02-10T14:03:35.604Z,15.10
2018-02-10T14:06:06.462Z,21.40
2018-02-10T14:08:35.776Z,18.37
2018-02-10T14:11:05.016Z,17.90
2018-02-10T14:13:34.240Z,19.50
2018-02-10T14:16:03.501Z,16.70
2018-02-10T14:18:32.845Z,18.80
2018-02-10T14:21:02.873Z,18.27
2018-02-10T14:23:32.903Z,18.00
2018-02-10T14:26:02.240Z,17.30
2018-02-10T14:28:31.663Z,21.10
2018-02-10T14:31:00.889Z,19.83
2018-02-10T14:33:30.875Z,21.40
2018-02-10T14:36:00.106Z,18.77
2018-02-10T14:38:30.131Z,21.30
2018-02-10T14:40:59.565Z,19.07
2018-02-10T14:43:28.765Z,22.73
2018-02-10T14:45:58.044Z,20.20
2018-02-10T14:48:27.286Z,24.83
2018-02-10T14:50:56.570Z,25.83
2018-02-10T14:53:25.831Z,27.10
2018-02-10T14:55:55.115Z,26.27
2018-02-10T14:58:25.149Z,26.87
2018-02-10T15:00:54.632Z,22.97
2018-02-10T15:03:24.608Z,26.07
2018-02-10T15:05:53.835Z,28.70
2018-02-10T15:08:23.827Z,32.27
2018-02-10T15:10:53.063Z,29.70
2018-02-10T15:13:22.305Z,30.90
2018-02-10T15:15:51.570Z,26.50
2018-02-10T15:18:20.804Z,29.20
2018-02-10T15:20:50.042Z,34.63
2018-02-10T15:23:20.069Z,29.43
2018-02-10T15:25:50.040Z,27.03
2018-02-10T15:28:19.699Z,30.07
2018-02-10T15:31:06.304Z,31.30
2018-02-10T15:33:53.891Z,30.10
2018-02-10T15:36:23.114Z,30.70
2018-02-10T15:38:53.146Z,33.27
2018-02-10T15:41:23.202Z,23.13
2018-02-10T15:43:53.164Z,26.77
2018-02-10T15:46:22.396Z,26.27
2018-02-10T15:48:51.628Z,25.77
2018-02-10T15:51:20.881Z,30.20
2018-02-10T15:53:50.251Z,22.53
2018-02-10T15:56:19.446Z,24.27
2018-02-10T15:58:49.447Z,26.03
2018-02-10T16:01:18.688Z,30.07
2018-02-10T16:03:48.012Z,24.17
2018-02-10T16:06:17.232Z,31.80
2018-02-10T16:08:46.478Z,30.03
2018-02-10T16:11:15.695Z,26.17
2018-02-10T16:13:44.923Z,30.70
2018-02-10T16:16:14.188Z,28.70
2018-02-10T16:18:43.439Z,30.27
2018-02-10T16:21:12.656Z,31.23
2018-02-10T16:23:42.666Z,26.43
2018-02-10T16:26:13.115Z,27.73
2018-02-10T16:28:42.331Z,25.73
2018-02-10T16:31:11.549Z,27.97
2018-02-10T16:33:42.340Z,26.70
2018-02-10T16:36:12.388Z,30.80
2018-02-10T16:38:41.628Z,33.03
2018-02-10T16:41:11.857Z,32.53
2018-02-10T16:43:41.219Z,30.57
2018-02-10T16:46:10.481Z,31.93
2018-02-10T16:48:40.487Z,35.57
2018-02-10T16:51:10.520Z,29.20
2018-02-10T16:53:39.906Z,31.37
2018-02-10T16:56:09.946Z,29.97
2018-02-10T16:58:39.176Z,37.87
2018-02-10T17:01:08.381Z,36.50
2018-02-10T17:03:37.700Z,35.03
2018-02-10T17:06:08.047Z,28.07
2018-02-10T17:08:37.452Z,28.80
2018-02-10T17:11:07.502Z,33.17
2018-02-10T17:13:36.730Z,35.30
2018-02-10T17:16:05.930Z,35.90
2018-02-10T17:18:35.171Z,30.23
2018-02-10T17:21:04.397Z,30.20
2018-02-10T17:23:33.659Z,28.60
2018-02-10T17:26:02.899Z,27.27
2018-02-10T17:28:32.202Z,26.53
2018-02-10T17:31:01.463Z,25.83
2018-02-10T17:33:30.708Z,26.67
2018-02-10T17:35:59.971Z,28.70
2018-02-10T17:38:29.238Z,22.63
2018-02-10T17:40:59.382Z,22.57
2018-02-10T17:43:28.685Z,20.93
2018-02-10T17:45:58.079Z,19.50
2018-02-10T17:48:28.048Z,22.47
2018-02-10T17:50:57.342Z,24.40
2018-02-10T17:53:28.115Z,22.63
2018-02-10T17:55:58.101Z,22.23
2018-02-10T17:58:28.171Z,17.27
2018-02-10T18:00:57.453Z,20.73
2018-02-10T18:03:26.696Z,24.00
2018-02-10T18:05:56.009Z,26.03
2018-02-10T18:08:25.284Z,19.30
2018-02-10T18:10:54.569Z,21.83
2018-02-10T18:13:23.811Z,25.40
2018-02-10T18:15:55.001Z,27.90
2018-02-10T18:18:24.249Z,28.20
2018-02-10T18:20:53.550Z,37.10
2018-02-10T18:23:22.741Z,32.47
2018-02-10T18:25:51.999Z,27.40
2018-02-10T18:28:21.236Z,35.83
2018-02-10T18:30:50.511Z,28.07
2018-02-10T18:33:19.804Z,34.37
2018-02-10T18:35:49.088Z,33.83
2018-02-10T18:38:18.358Z,35.63
2018-02-10T18:40:48.399Z,32.33
2018-02-10T18:43:18.422Z,28.80
2018-02-10T18:45:47.766Z,32.87
2018-02-10T18:48:16.999Z,31.00
2018-02-10T18:50:47.001Z,38.73
2018-02-10T18:53:17.018Z,32.43
2018-02-10T18:55:46.248Z,34.93
2018-02-10T18:58:15.596Z,34.30
2018-02-10T19:00:44.911Z,32.23
2018-02-10T19:03:14.183Z,33.43
2018-02-10T19:05:44.190Z,29.70
2018-02-10T19:08:13.474Z,30.90
2018-02-10T19:10:42.730Z,29.87
2018-02-10T19:13:12.801Z,27.17
2018-02-10T19:15:42.011Z,28.30
2018-02-10T19:18:11.337Z,32.77
2018-02-10T19:20:41.368Z,33.90
2018-02-10T19:23:11.384Z,40.03
2018-02-10T19:25:40.623Z,41.10
2018-02-10T19:28:09.938Z,39.00
2018-02-10T19:30:39.192Z,34.67
2018-02-10T19:33:09.268Z,29.53
2018-02-10T19:35:38.546Z,32.53
2018-02-10T19:38:08.032Z,28.87
2018-02-10T19:40:37.292Z,38.83
2018-02-10T19:43:06.933Z,29.43
2018-02-10T19:45:36.335Z,30.43
2018-02-10T19:48:05.610Z,31.50
2018-02-10T19:50:35.611Z,37.30
2018-02-10T19:53:05.629Z,28.13
2018-02-10T19:55:35.242Z,24.17
2018-02-10T19:58:05.308Z,27.40
2018-02-10T20:00:34.575Z,30.47
2018-02-10T20:03:04.622Z,21.77
2018-02-10T20:05:34.175Z,24.70
2018-02-10T20:08:04.382Z,21.63
2018-02-10T20:10:34.455Z,23.00
2018-02-10T20:13:03.686Z,27.30
2018-02-10T20:15:32.936Z,21.60
2018-02-10T20:18:02.170Z,20.43
2018-02-10T20:20:31.752Z,18.77
2018-02-10T20:23:01.031Z,19.93
2018-02-10T20:25:31.069Z,21.00
2018-02-10T20:28:00.381Z,19.37
2018-02-10T20:30:29.611Z,16.97
2018-02-10T20:32:58.858Z,17.20
2018-02-10T20:35:28.216Z,13.90
2018-02-10T20:37:57.444Z,14.37
2018-02-10T20:40:26.690Z,13.70
2018-02-10T20:42:56.000Z,12.00
2018-02-10T20:45:25.284Z,13.47
2018-02-10T20:47:54.643Z,11.77
2018-02-10T20:50:24.703Z,15.67
2018-02-10T20:52:54.140Z,13.63
2018-02-10T20:55:24.319Z,14.70
2018-02-10T20:57:53.579Z,14.03
2018-02-10T21:00:23.624Z,14.80
2018-02-10T21:02:52.874Z,13.80
2018-02-10T21:05:22.186Z,11.30
2018-02-10T21:07:52.313Z,16.67
2018-02-10T21:10:22.285Z,14.17
2018-02-10T21:12:51.561Z,12.47
2018-02-10T21:15:20.820Z,12.07
2018-02-10T21:17:50.256Z,13.77
2018-02-10T21:20:19.473Z,15.27
2018-02-10T21:22:48.801Z,13.07
2018-02-10T21:25:18.823Z,24.53
2018-02-10T21:27:48.883Z,16.00
2018-02-10T21:30:18.353Z,15.67
2018-02-10T21:32:49.141Z,14.87
2018-02-10T21:35:18.580Z,14.67
2018-02-10T21:37:48.182Z,19.03
2018-02-10T21:40:18.304Z,11.10
2018-02-10T21:42:47.527Z,16.17
2018-02-10T21:45:17.592Z,14.27
2018-02-10T21:47:46.871Z,16.60
2018-02-10T21:50:16.191Z,10.87
2018-02-10T21:52:45.426Z,13.00
2018-02-10T21:55:15.526Z,12.27
2018-02-10T21:57:44.793Z,12.30
2018-02-10T22:00:14.164Z,12.30
2018-02-10T22:02:43.614Z,9.90
2018-02-10T22:05:13.738Z,12.87
2018-02-10T22:07:43.039Z,10.80
2018-02-10T22:10:12.330Z,11.37
2018-02-10T22:12:41.611Z,11.70
2018-02-10T22:15:10.839Z,10.63
2018-02-10T22:17:40.107Z,7.40
2018-02-10T22:20:09.377Z,9.23
2018-02-10T22:22:38.690Z,10.23
2018-02-10T22:25:07.960Z,8.07
2018-02-10T22:27:37.976Z,8.83
2018-02-10T22:30:08.046Z,9.77
2018-02-10T22:32:37.315Z,10.60
2018-02-10T22:35:06.554Z,10.20
2018-02-10T22:37:35.918Z,7.90
2018-02-10T22:40:05.187Z,8.43
2018-02-10T22:42:35.162Z,9.00
2018-02-10T22:45:04.445Z,11.30
2018-02-10T22:47:33.668Z,9.30
2018-02-10T22:50:02.920Z,11.20
2018-02-10T22:52:32.929Z,8.83
2018-02-10T22:55:02.361Z,10.33
2018-02-10T22:57:31.617Z,10.40
2018-02-10T23:00:00.894Z,14.77
2018-02-10T23:02:30.102Z,10.27
2018-02-10T23:04:59.313Z,9.77
2018-02-10T23:07:29.294Z,9.70
2018-02-10T23:09:58.653Z,9.50
2018-02-10T23:12:27.870Z,9.27
2018-02-10T23:14:57.090Z,9.57
2018-02-10T23:17:26.527Z,12.23
2018-02-10T23:19:55.771Z,10.53
2018-02-10T23:22:24.987Z,10.37
2018-02-10T23:24:54.205Z,10.57
2018-02-10T23:27:23.458Z,9.87
2018-02-10T23:29:52.699Z,8.70
2018-02-10T23:32:22.246Z,13.30
2018-02-10T23:34:51.507Z,7.93
2018-02-10T23:37:20.730Z,8.70
2018-02-10T23:39:50.729Z,7.83
2018-02-10T23:42:19.993Z,9.70
2018-02-10T23:44:49.235Z,12.27
2018-02-10T23:47:19.214Z,12.33
2018-02-10T23:49:48.460Z,9.33
2018-02-10T23:52:18.423Z,11.00
2018-02-10T23:54:47.635Z,9.60
2018-02-10T23:57:16.884Z,12.90
2018-02-10T23:59:46.116Z,9.93
